createdAt,value
2018-09-27T00:01:21.263Z,100972.00
2018-09-27T00:03:25.742Z,100984.00
2018-09-27T00:05:30.276Z,100975.00
2018-09-27T00:07:34.867Z,100981.00
2018-09-27T00:09:39.331Z,100981.00
2018-09-27T00:11:43.832Z,100980.00
2018-09-27T00:13:48.314Z,100969.00
2018-09-27T00:15:53.306Z,100970.00
2018-09-27T00:17:58.454Z,100977.00
2018-09-27T00:20:02.918Z,100981.00
2018-09-27T00:22:07.499Z,100983.00
2018-09-27T00:24:11.950Z,100971.00
2018-09-27T00:26:16.472Z,100979.00
2018-09-27T00:28:21.026Z,100986.00
2018-09-27T00:30:25.519Z,100986.00
2018-09-27T00:32:30.132Z,100985.00
2018-09-27T00:34:34.639Z,100992.00
2018-09-27T00:36:39.191Z,100976.00
2018-09-27T00:38:43.685Z,100979.00
2018-09-27T00:40:48.186Z,100969.00
2018-09-27T00:42:52.715Z,100972.00
2018-09-27T00:44:57.863Z,100978.00
2018-09-27T00:47:02.360Z,100976.00
2018-09-27T00:49:06.905Z,100971.00
2018-09-27T00:51:11.412Z,100969.00
2018-09-27T00:53:15.994Z,100958.00
2018-09-27T00:55:20.482Z,100964.00
2018-09-27T00:57:24.958Z,100963.00
2018-09-27T00:59:29.499Z,100967.00
2018-09-27T01:01:34.002Z,100967.00
2018-09-27T01:03:38.830Z,100958.00
2018-09-27T01:05:43.461Z,100968.00
2018-09-27T01:07:47.990Z,100969.00
2018-09-27T01:09:52.469Z,100958.00
2018-09-27T01:11:56.971Z,100959.00
2018-09-27T01:14:01.498Z,100960.00
2018-09-27T01:16:06.155Z,100951.00
2018-09-27T01:18:10.654Z,100947.00
2018-09-27T01:20:15.209Z,100953.00
2018-09-27T01:22:19.791Z,100957.00
2018-09-27T01:24:24.275Z,100959.00
2018-09-27T01:26:28.788Z,100956.00
2018-09-27T01:28:33.377Z,100952.00
2018-09-27T01:30:38.975Z,100944.00
2018-09-27T01:32:43.487Z,100948.00
2018-09-27T01:34:47.974Z,100948.00
2018-09-27T01:36:52.467Z,100942.00
2018-09-27T01:38:56.974Z,100944.00
2018-09-27T01:41:01.480Z,100944.00
2018-09-27T01:43:06.219Z,100955.00
2018-09-27T01:45:10.735Z,100939.00
2018-09-27T01:47:16.176Z,100945.00
2018-09-27T01:49:20.649Z,100939.00
2018-09-27T01:51:25.147Z,100929.00
2018-09-27T01:53:29.662Z,100942.00
2018-09-27T01:55:34.145Z,100932.00
2018-09-27T01:57:39.363Z,100940.00
2018-09-27T01:59:43.879Z,100937.00
2018-09-27T02:01:48.411Z,100938.00
2018-09-27T02:03:52.907Z,100937.00
2018-09-27T02:05:57.395Z,100938.00
2018-09-27T02:08:02.228Z,100935.00
2018-09-27T02:10:06.778Z,100941.00
2018-09-27T02:12:11.230Z,100934.00
2018-09-27T02:14:15.803Z,100938.00
2018-09-27T02:16:20.239Z,100931.00
2018-09-27T02:18:24.727Z,100919.00
2018-09-27T02:20:29.175Z,100921.00
2018-09-27T02:22:33.843Z,100915.00
2018-09-27T02:24:38.335Z,100918.00
2018-09-27T02:26:42.858Z,100924.00
2018-09-27T02:28:47.341Z,100915.00
2018-09-27T02:30:51.892Z,100922.00
2018-09-27T02:32:56.415Z,100916.00
2018-09-27T02:35:00.883Z,100917.00
2018-09-27T02:37:05.420Z,100905.00
2018-09-27T02:39:11.150Z,100905.00
2018-09-27T02:41:15.673Z,100908.00
2018-09-27T02:43:20.130Z,100908.00
2018-09-27T02:45:24.574Z,100914.00
2018-09-27T02:47:29.414Z,100910.00
2018-09-27T02:49:34.103Z,100906.00
2018-09-27T02:51:38.540Z,100892.00
2018-09-27T02:53:43.083Z,100893.00
2018-09-27T02:55:47.543Z,100887.00
2018-09-27T02:57:52.021Z,100893.00
2018-09-27T02:59:56.486Z,100895.00
2018-09-27T03:02:00.947Z,100891.00
2018-09-27T03:04:05.466Z,100893.00
2018-09-27T03:06:09.906Z,100891.00
2018-09-27T03:08:15.530Z,100883.00
2018-09-27T03:10:19.998Z,100883.00
2018-09-27T03:12:24.482Z,100884.00
2018-09-27T03:14:28.993Z,100877.00
2018-09-27T03:16:33.407Z,100869.00
2018-09-27T03:18:37.902Z,100879.00
2018-09-27T03:20:42.481Z,100874.00
2018-09-27T03:22:46.946Z,100875.00
2018-09-27T03:24:51.423Z,100876.00
2018-09-27T03:26:55.884Z,100874.00
2018-09-27T03:29:00.319Z,100867.00
2018-09-27T03:31:04.807Z,100873.00
2018-09-27T03:33:09.342Z,100868.00
2018-09-27T03:35:13.803Z,100857.00
2018-09-27T03:37:18.291Z,100857.00
2018-09-27T03:39:22.765Z,100866.00
2018-09-27T03:41:27.295Z,100856.00
2018-09-27T03:43:31.748Z,100859.00
2018-09-27T03:45:36.219Z,100859.00
2018-09-27T03:47:40.686Z,100853.00
2018-09-27T03:49:45.231Z,100852.00
2018-09-27T03:51:49.846Z,100836.00
2018-09-27T03:53:54.331Z,100835.00
2018-09-27T03:55:58.810Z,100844.00
2018-09-27T03:58:03.279Z,100828.00
2018-09-27T04:00:08.654Z,100838.00
2018-09-27T04:02:13.135Z,100836.00
2018-09-27T04:04:17.664Z,100830.00
2018-09-27T04:06:22.095Z,100834.00
2018-09-27T04:08:26.562Z,100827.00
2018-09-27T04:10:31.027Z,100824.00
2018-09-27T04:12:36.083Z,100822.00
2018-09-27T04:14:40.613Z,100817.00
2018-09-27T04:16:45.170Z,100821.00
2018-09-27T04:18:49.649Z,100819.00
2018-09-27T04:20:54.115Z,100821.00
2018-09-27T04:22:58.574Z,100823.00
2018-09-27T04:25:03.065Z,100814.00
2018-09-27T04:27:07.759Z,100812.00
2018-09-27T04:29:12.239Z,100818.00
2018-09-27T04:31:16.823Z,100816.00
2018-09-27T04:33:21.254Z,100814.00
2018-09-27T04:35:25.962Z,100824.00
2018-09-27T04:37:30.431Z,100820.00
2018-09-27T04:39:36.041Z,100824.00
2018-09-27T04:41:40.527Z,100823.00
2018-09-27T04:43:47.034Z,100818.00
2018-09-27T04:45:51.813Z,100819.00
2018-09-27T04:47:56.266Z,100829.00
2018-09-27T04:50:00.790Z,100820.00
2018-09-27T04:52:05.241Z,100818.00
2018-09-27T04:54:09.728Z,100819.00
2018-09-27T04:56:14.190Z,100824.00
2018-09-27T04:58:18.644Z,100816.00
2018-09-27T05:00:23.203Z,100809.00
2018-09-27T05:02:27.640Z,100826.00
2018-09-27T05:04:32.135Z,100819.00
2018-09-27T05:06:36.590Z,100821.00
2018-09-27T05:08:41.038Z,100824.00
2018-09-27T05:10:45.523Z,100826.00
2018-09-27T05:12:49.953Z,100822.00
2018-09-27T05:14:54.471Z,100827.00
2018-09-27T05:16:58.940Z,100817.00
2018-09-27T05:19:03.436Z,100818.00
2018-09-27T05:21:07.919Z,100830.00
2018-09-27T05:23:12.389Z,100824.00
2018-09-27T05:25:16.894Z,100832.00
2018-09-27T05:27:21.404Z,100816.00
2018-09-27T05:29:25.818Z,100817.00
2018-09-27T05:31:30.277Z,100815.00
2018-09-27T05:33:34.758Z,100812.00
2018-09-27T05:35:39.215Z,100806.00
2018-09-27T05:37:43.675Z,100807.00
2018-09-27T05:39:48.870Z,100809.00
2018-09-27T05:41:53.338Z,100811.00
2018-09-27T05:43:57.751Z,100815.00
2018-09-27T05:46:02.304Z,100817.00
2018-09-27T05:48:07.517Z,100802.00
2018-09-27T05:50:11.980Z,100813.00
2018-09-27T05:52:16.975Z,100810.00
2018-09-27T05:54:21.399Z,100809.00
2018-09-27T05:56:25.904Z,100797.00
2018-09-27T05:58:30.971Z,100801.00
2018-09-27T06:00:35.483Z,100811.00
2018-09-27T06:02:40.004Z,100802.00
2018-09-27T06:04:44.497Z,100808.00
2018-09-27T06:06:48.967Z,100804.00
2018-09-27T06:08:53.575Z,100794.00
2018-09-27T06:10:58.119Z,100807.00
2018-09-27T06:13:02.639Z,100800.00
2018-09-27T06:15:07.235Z,100798.00
2018-09-27T06:17:11.682Z,100794.00
2018-09-27T06:19:17.251Z,100804.00
2018-09-27T06:21:21.723Z,100809.00
2018-09-27T06:23:26.191Z,100800.00
2018-09-27T06:25:30.807Z,100805.00
2018-09-27T06:27:35.319Z,100805.00
2018-09-27T06:29:39.803Z,100796.00
2018-09-27T06:31:44.610Z,100812.00
2018-09-27T06:33:49.062Z,100808.00
2018-09-27T06:35:53.600Z,100805.00
2018-09-27T06:37:58.064Z,100797.00
2018-09-27T06:40:02.554Z,100801.00
2018-09-27T06:42:07.168Z,100784.00
2018-09-27T06:44:11.594Z,100787.00
2018-09-27T06:46:17.268Z,100789.00
2018-09-27T06:48:21.743Z,100786.00
2018-09-27T06:50:26.323Z,100781.00
2018-09-27T06:52:30.775Z,100772.00
2018-09-27T06:54:36.199Z,100774.00
2018-09-27T06:56:40.792Z,100777.00
2018-09-27T06:58:45.182Z,100787.00
2018-09-27T07:00:49.999Z,100781.00
2018-09-27T07:02:55.047Z,100784.00
2018-09-27T07:04:59.540Z,100782.00
2018-09-27T07:07:03.989Z,100778.00
2018-09-27T07:09:11.567Z,100774.00
2018-09-27T07:11:16.297Z,100776.00
2018-09-27T07:13:20.746Z,100773.00
2018-09-27T07:15:25.172Z,100775.00
2018-09-27T07:17:29.619Z,100773.00
2018-09-27T07:19:34.122Z,100776.00
2018-09-27T07:21:38.672Z,100765.00
2018-09-27T07:23:43.136Z,100765.00
2018-09-27T07:25:47.657Z,100770.00
2018-09-27T07:27:52.206Z,100769.00
2018-09-27T07:29:58.037Z,100771.00
2018-09-27T07:32:02.551Z,100769.00
2018-09-27T07:34:07.271Z,100766.00
2018-09-27T07:36:11.793Z,100766.00
2018-09-27T07:38:16.269Z,100760.00
2018-09-27T07:40:21.035Z,100755.00
2018-09-27T07:42:25.499Z,100763.00
2018-09-27T07:44:29.939Z,100764.00
2018-09-27T07:46:34.690Z,100760.00
2018-09-27T07:48:39.278Z,100754.00
2018-09-27T07:50:43.676Z,100752.00
2018-09-27T07:52:48.147Z,100750.00
2018-09-27T07:54:52.773Z,100758.00
2018-09-27T07:56:57.129Z,100756.00
2018-09-27T07:59:01.631Z,100751.00
2018-09-27T08:01:06.075Z,100744.00
2018-09-27T08:03:10.692Z,100742.00
2018-09-27T08:05:15.166Z,100746.00
2018-09-27T08:07:19.769Z,100743.00
2018-09-27T08:09:24.406Z,100736.00
2018-09-27T08:11:28.882Z,100736.00
2018-09-27T08:13:33.390Z,100744.00
2018-09-27T08:15:38.519Z,100735.00
2018-09-27T08:17:42.968Z,100736.00
2018-09-27T08:19:47.433Z,100719.00
2018-09-27T08:21:51.860Z,100733.00
2018-09-27T08:23:56.323Z,100726.00
2018-09-27T08:26:01.533Z,100711.00
2018-09-27T08:28:06.505Z,100716.00
2018-09-27T08:30:11.006Z,100710.00
2018-09-27T08:32:15.470Z,100710.00
2018-09-27T08:34:19.918Z,100709.00
2018-09-27T08:36:24.370Z,100711.00
2018-09-27T08:38:28.944Z,100699.00
2018-09-27T08:40:33.460Z,100698.00
2018-09-27T08:42:37.935Z,100691.00
2018-09-27T08:44:42.465Z,100700.00
2018-09-27T08:46:46.920Z,100693.00
2018-09-27T08:48:51.375Z,100689.00
2018-09-27T08:50:55.875Z,100689.00
2018-09-27T08:53:01.464Z,100689.00
2018-09-27T08:55:06.346Z,100687.00
2018-09-27T08:57:10.832Z,100676.00
2018-09-27T08:59:15.387Z,100682.00
2018-09-27T09:01:19.845Z,100680.00
2018-09-27T09:03:24.402Z,100668.00
2018-09-27T09:05:28.901Z,100667.00
2018-09-27T09:07:33.373Z,100666.00
2018-09-27T09:09:37.940Z,100667.00
2018-09-27T09:11:42.462Z,100662.00
2018-09-27T09:13:46.970Z,100664.00
2018-09-27T09:15:51.401Z,100660.00
2018-09-27T09:17:55.879Z,100660.00
2018-09-27T09:20:00.351Z,100656.00
2018-09-27T09:22:04.939Z,100653.00
2018-09-27T09:24:09.826Z,100649.00
2018-09-27T09:26:14.271Z,100646.00
2018-09-27T09:28:20.084Z,100643.00
2018-09-27T09:30:24.529Z,100647.00
2018-09-27T09:32:29.135Z,100642.00
2018-09-27T09:34:33.671Z,100637.00
2018-09-27T09:36:38.221Z,100638.00
2018-09-27T09:38:42.828Z,100639.00
2018-09-27T09:40:48.298Z,100624.00
2018-09-27T09:42:52.767Z,100621.00
2018-09-27T09:44:57.293Z,100618.00
2018-09-27T09:47:01.791Z,100623.00
2018-09-27T09:49:06.371Z,100621.00
2018-09-27T09:51:10.837Z,100616.00
2018-09-27T09:53:15.368Z,100611.00
2018-09-27T09:55:19.910Z,100605.00
2018-09-27T09:57:25.020Z,100596.00
2018-09-27T09:59:29.517Z,100599.00
2018-09-27T10:01:34.006Z,100587.00
2018-09-27T10:03:38.610Z,100591.00
2018-09-27T10:05:43.100Z,100589.00
2018-09-27T10:07:48.473Z,100579.00
2018-09-27T10:09:52.937Z,100579.00
2018-09-27T10:11:57.435Z,100578.00
2018-09-27T10:14:02.206Z,100571.00
2018-09-27T10:16:06.675Z,100568.00
2018-09-27T10:18:11.505Z,100571.00
2018-09-27T10:20:16.075Z,100566.00
2018-09-27T10:22:22.103Z,100563.00
2018-09-27T10:24:28.629Z,100563.00
2018-09-27T10:26:35.336Z,100561.00
2018-09-27T10:28:39.836Z,100557.00
2018-09-27T10:30:44.419Z,100548.00
2018-09-27T10:32:48.863Z,100541.00
2018-09-27T10:34:53.403Z,100545.00
2018-09-27T10:36:57.887Z,100542.00
2018-09-27T10:39:02.429Z,100542.00
2018-09-27T10:41:07.068Z,100539.00
2018-09-27T10:43:11.499Z,100539.00
2018-09-27T10:45:16.032Z,100551.00
2018-09-27T10:47:20.505Z,100537.00
2018-09-27T10:49:25.015Z,100540.00
2018-09-27T10:51:30.758Z,100533.00
2018-09-27T10:53:35.258Z,100532.00
2018-09-27T10:55:39.740Z,100532.00
2018-09-27T10:57:44.206Z,100528.00
2018-09-27T10:59:48.813Z,100529.00
2018-09-27T11:01:53.262Z,100527.00
2018-09-27T11:03:57.709Z,100533.00
2018-09-27T11:06:02.267Z,100526.00
2018-09-27T11:08:06.959Z,100529.00
2018-09-27T11:10:11.442Z,100529.00
2018-09-27T11:12:15.973Z,100522.00
2018-09-27T11:14:20.463Z,100522.00
2018-09-27T11:16:24.913Z,100514.00
2018-09-27T11:18:29.387Z,100516.00
2018-09-27T11:20:34.282Z,100517.00
2018-09-27T11:22:38.774Z,100506.00
2018-09-27T11:24:43.263Z,100505.00
2018-09-27T11:26:47.799Z,100508.00
2018-09-27T11:28:57.561Z,100500.00
2018-09-27T11:31:07.302Z,100500.00
2018-09-27T11:33:11.856Z,100504.00
2018-09-27T11:35:17.124Z,100500.00
2018-09-27T11:37:21.618Z,100489.00
2018-09-27T11:39:26.123Z,100486.00
2018-09-27T11:41:30.580Z,100484.00
2018-09-27T11:43:36.475Z,100476.00
2018-09-27T11:45:41.179Z,100473.00
2018-09-27T11:47:45.748Z,100473.00
2018-09-27T11:49:51.058Z,100469.00
2018-09-27T11:51:56.482Z,100460.00
2018-09-27T11:54:00.987Z,100474.00
2018-09-27T11:56:05.618Z,100455.00
2018-09-27T11:58:10.018Z,100453.00
2018-09-27T12:00:15.157Z,100447.00
2018-09-27T12:02:20.776Z,100444.00
2018-09-27T12:04:25.288Z,100441.00
2018-09-27T12:06:29.764Z,100435.00
2018-09-27T12:08:34.270Z,100439.00
2018-09-27T12:10:39.856Z,100424.00
2018-09-27T12:12:44.307Z,100426.00
2018-09-27T12:14:48.754Z,100424.00
2018-09-27T12:16:53.235Z,100416.00
2018-09-27T12:18:57.683Z,100412.00
2018-09-27T12:25:40.771Z,100399.00
2018-09-27T12:27:45.222Z,100402.00
2018-09-27T12:29:49.696Z,100393.00
2018-09-27T12:31:56.085Z,100390.00
2018-09-27T12:34:00.596Z,100385.00
2018-09-27T12:36:05.696Z,100386.00
2018-09-27T12:38:10.167Z,100387.00
2018-09-27T12:40:16.583Z,100381.00
2018-09-27T12:42:21.104Z,100382.00
2018-09-27T12:44:25.572Z,100383.00
2018-09-27T12:46:30.131Z,100374.00
2018-09-27T12:48:34.623Z,100371.00
2018-09-27T12:50:41.207Z,100367.00
2018-09-27T12:52:45.694Z,100370.00
2018-09-27T12:54:50.607Z,100358.00
2018-09-27T12:56:55.088Z,100360.00
2018-09-27T12:58:59.566Z,100348.00
2018-09-27T13:01:04.195Z,100350.00
2018-09-27T13:03:08.639Z,100345.00
2018-09-27T13:05:13.232Z,100342.00
2018-09-27T13:07:17.755Z,100334.00
2018-09-27T13:09:22.344Z,100332.00
2018-09-27T13:11:26.779Z,100334.00
2018-09-27T13:13:31.976Z,100337.00
2018-09-27T13:15:36.362Z,100325.00
2018-09-27T13:17:41.655Z,100314.00
2018-09-27T13:19:46.132Z,100306.00
2018-09-27T13:21:50.631Z,100308.00
2018-09-27T13:23:55.390Z,100307.00
2018-09-27T13:25:59.923Z,100305.00
2018-09-27T13:28:04.436Z,100306.00
2018-09-27T13:30:08.957Z,100294.00
2018-09-27T13:32:13.405Z,100297.00
2018-09-27T13:34:17.881Z,100292.00
2018-09-27T13:36:22.351Z,100284.00
2018-09-27T13:38:26.827Z,100286.00
2018-09-27T13:40:31.350Z,100281.00
2018-09-27T13:42:35.946Z,100272.00
2018-09-27T13:44:40.498Z,100270.00
2018-09-27T13:46:44.968Z,100266.00
2018-09-27T13:48:49.442Z,100261.00
2018-09-27T13:50:54.115Z,100253.00
2018-09-27T13:52:58.638Z,100252.00
2018-09-27T13:55:03.153Z,100249.00
2018-09-27T13:57:07.929Z,100241.00
2018-09-27T13:59:12.243Z,100244.00
2018-09-27T14:01:16.836Z,100241.00
2018-09-27T14:03:21.824Z,100245.00
2018-09-27T14:05:26.309Z,100239.00
2018-09-27T14:07:30.842Z,100247.00
2018-09-27T14:09:35.351Z,100252.00
2018-09-27T14:11:39.991Z,100243.00
2018-09-27T14:13:44.875Z,100246.00
2018-09-27T14:15:49.379Z,100246.00
2018-09-27T14:17:53.820Z,100234.00
2018-09-27T14:19:58.475Z,100234.00
2018-09-27T14:22:02.964Z,100229.00
2018-09-27T14:24:07.505Z,100235.00
2018-09-27T14:26:12.024Z,100233.00
2018-09-27T14:28:16.593Z,100225.00
2018-09-27T14:30:21.107Z,100223.00
2018-09-27T14:32:25.744Z,100226.00
2018-09-27T14:34:30.368Z,100209.00
2018-09-27T14:36:34.934Z,100215.00
2018-09-27T14:38:39.395Z,100219.00
2018-09-27T14:40:43.887Z,100206.00
2018-09-27T14:42:48.344Z,100202.00
2018-09-27T14:44:52.837Z,100205.00
2018-09-27T14:46:57.340Z,100198.00
2018-09-27T14:49:01.898Z,100201.00
2018-09-27T14:51:06.387Z,100197.00
2018-09-27T14:53:11.151Z,100191.00
2018-09-27T14:55:15.686Z,100186.00
2018-09-27T14:57:20.183Z,100185.00
2018-09-27T14:59:24.672Z,100184.00
2018-09-27T15:01:29.130Z,100177.00
2018-09-27T15:03:33.785Z,100180.00
2018-09-27T15:05:38.357Z,100164.00
2018-09-27T15:07:42.968Z,100166.00
2018-09-27T15:09:47.495Z,100163.00
2018-09-27T15:11:51.950Z,100164.00
2018-09-27T15:13:56.431Z,100161.00
2018-09-27T15:16:01.072Z,100153.00
2018-09-27T15:18:05.618Z,100159.00
2018-09-27T15:20:10.067Z,100166.00
2018-09-27T15:22:14.591Z,100163.00
2018-09-27T15:24:19.097Z,100165.00
2018-09-27T15:26:23.583Z,100154.00
2018-09-27T15:28:28.635Z,100157.00
2018-09-27T15:30:33.432Z,100156.00
2018-09-27T15:32:37.960Z,100153.00
2018-09-27T15:34:42.879Z,100155.00
2018-09-27T15:36:47.343Z,100158.00
2018-09-27T15:38:51.867Z,100154.00
2018-09-27T15:40:56.347Z,100150.00
2018-09-27T15:43:00.823Z,100153.00
2018-09-27T15:45:05.410Z,100147.00
2018-09-27T15:47:09.886Z,100147.00
2018-09-27T15:49:14.415Z,100147.00
2018-09-27T15:51:18.949Z,100155.00
2018-09-27T15:53:23.438Z,100147.00
2018-09-27T15:55:27.935Z,100151.00
2018-09-27T15:57:32.406Z,100145.00
2018-09-27T15:59:36.870Z,100144.00
2018-09-27T16:01:41.394Z,100137.00
2018-09-27T16:03:45.875Z,100133.00
2018-09-27T16:05:50.383Z,100125.00
2018-09-27T16:07:54.916Z,100131.00
2018-09-27T16:09:59.451Z,100119.00
2018-09-27T16:12:03.989Z,100118.00
2018-09-27T16:14:08.494Z,100123.00
2018-09-27T16:16:13.030Z,100106.00
2018-09-27T16:18:17.488Z,100114.00
2018-09-27T16:20:22.009Z,100108.00
2018-09-27T16:22:26.907Z,100104.00
2018-09-27T16:24:31.395Z,100114.00
2018-09-27T16:26:35.851Z,100096.00
2018-09-27T16:28:40.363Z,100104.00
2018-09-27T16:30:44.860Z,100112.00
2018-09-27T16:32:49.347Z,100098.00
2018-09-27T16:34:53.822Z,100093.00
2018-09-27T16:36:58.247Z,100101.00
2018-09-27T16:39:02.765Z,100098.00
2018-09-27T16:41:07.259Z,100101.00
2018-09-27T16:43:11.963Z,100107.00
2018-09-27T16:45:16.463Z,100109.00
2018-09-27T16:47:21.015Z,100102.00
2018-09-27T16:49:25.444Z,100092.00
2018-09-27T16:51:30.036Z,100096.00
2018-09-27T16:53:34.643Z,100093.00
2018-09-27T16:55:39.598Z,100098.00
2018-09-27T16:57:44.029Z,100095.00
2018-09-27T16:59:48.719Z,100099.00
2018-09-27T17:01:53.299Z,100101.00
2018-09-27T17:03:57.781Z,100104.00
2018-09-27T17:06:02.874Z,100096.00
2018-09-27T17:08:07.399Z,100100.00
2018-09-27T17:10:12.470Z,100098.00
2018-09-27T17:12:16.918Z,100097.00
2018-09-27T17:14:21.391Z,100093.00
2018-09-27T17:16:26.019Z,100092.00
2018-09-27T17:18:30.447Z,100093.00
2018-09-27T17:20:34.919Z,100102.00
2018-09-27T17:22:39.517Z,100093.00
2018-09-27T17:24:44.274Z,100101.00
2018-09-27T17:26:48.639Z,100097.00
2018-09-27T17:28:53.148Z,100105.00
2018-09-27T17:30:57.652Z,100095.00
2018-09-27T17:33:02.295Z,100101.00
2018-09-27T17:35:06.891Z,100090.00
2018-09-27T17:37:11.376Z,100092.00
2018-09-27T17:39:16.098Z,100091.00
2018-09-27T17:41:20.552Z,100091.00
2018-09-27T17:43:25.027Z,100086.00
2018-09-27T17:45:29.579Z,100087.00
2018-09-27T17:47:34.148Z,100090.00
2018-09-27T17:49:38.738Z,100093.00
2018-09-27T17:51:43.173Z,100086.00
2018-09-27T17:53:47.622Z,100090.00
2018-09-27T17:55:52.221Z,100097.00
2018-09-27T17:57:56.713Z,100096.00
2018-09-27T18:00:01.263Z,100095.00
2018-09-27T18:02:05.778Z,100097.00
2018-09-27T18:04:10.228Z,100098.00
2018-09-27T18:06:14.738Z,100101.00
2018-09-27T18:08:19.285Z,100098.00
2018-09-27T18:10:23.851Z,100104.00
2018-09-27T18:12:28.366Z,100103.00
2018-09-27T18:14:32.840Z,100098.00
2018-09-27T18:16:37.381Z,100104.00
2018-09-27T18:18:41.831Z,100100.00
2018-09-27T18:20:46.369Z,100106.00
2018-09-27T18:22:51.547Z,100099.00
2018-09-27T18:24:56.031Z,100093.00
2018-09-27T18:27:00.769Z,100096.00
2018-09-27T18:29:05.227Z,100101.00
2018-09-27T18:31:09.778Z,100092.00
2018-09-27T18:33:14.269Z,100098.00
2018-09-27T18:35:18.855Z,100093.00
2018-09-27T18:37:23.412Z,100097.00
2018-09-27T18:39:27.823Z,100089.00
2018-09-27T18:41:32.295Z,100086.00
2018-09-27T18:43:36.787Z,100090.00
2018-09-27T18:45:41.254Z,100094.00
2018-09-27T18:47:45.710Z,100082.00
2018-09-27T18:49:50.220Z,100085.00
2018-09-27T18:51:54.819Z,100085.00
2018-09-27T18:53:59.315Z,100095.00
2018-09-27T18:56:03.804Z,100089.00
2018-09-27T18:58:08.306Z,100090.00
2018-09-27T19:00:12.794Z,100094.00
2018-09-27T19:02:17.272Z,100098.00
2018-09-27T19:04:21.817Z,100091.00
2018-09-27T19:06:26.298Z,100091.00
2018-09-27T19:08:30.752Z,100089.00
2018-09-27T19:10:35.275Z,100093.00
2018-09-27T19:12:39.715Z,100092.00
2018-09-27T19:14:44.231Z,100089.00
2018-09-27T19:16:48.747Z,100088.00
2018-09-27T19:18:53.262Z,100084.00
2018-09-27T19:20:57.922Z,100091.00
2018-09-27T19:23:02.394Z,100089.00
2018-09-27T19:25:06.942Z,100091.00
2018-09-27T19:27:11.470Z,100079.00
2018-09-27T19:29:16.001Z,100081.00
2018-09-27T19:31:20.497Z,100096.00
2018-09-27T19:33:25.014Z,100087.00
2018-09-27T19:35:29.566Z,100091.00
2018-09-27T19:37:35.194Z,100076.00
2018-09-27T19:39:39.667Z,100079.00
2018-09-27T19:41:44.143Z,100088.00
2018-09-27T19:43:48.622Z,100089.00
2018-09-27T19:45:53.100Z,100084.00
2018-09-27T19:47:57.712Z,100079.00
2018-09-27T19:50:02.247Z,100084.00
2018-09-27T19:52:07.051Z,100085.00
2018-09-27T19:54:11.759Z,100081.00
2018-09-27T19:56:16.832Z,100083.00
2018-09-27T19:58:21.328Z,100078.00
2018-09-27T20:00:25.823Z,100080.00
2018-09-27T20:02:30.334Z,100074.00
2018-09-27T20:04:34.809Z,100078.00
2018-09-27T20:06:39.336Z,100070.00
2018-09-27T20:08:43.942Z,100077.00
2018-09-27T20:10:48.378Z,100085.00
2018-09-27T20:12:52.855Z,100063.00
2018-09-27T20:14:57.498Z,100070.00
2018-09-27T20:17:02.286Z,100061.00
2018-09-27T20:19:07.281Z,100073.00
2018-09-27T20:21:11.787Z,100063.00
2018-09-27T20:23:16.275Z,100066.00
2018-09-27T20:25:20.772Z,100070.00
2018-09-27T20:27:25.245Z,100068.00
2018-09-27T20:29:29.735Z,100068.00
2018-09-27T20:31:34.411Z,100074.00
2018-09-27T20:33:39.376Z,100075.00
2018-09-27T20:35:43.894Z,100068.00
2018-09-27T20:37:48.382Z,100084.00
2018-09-27T20:39:52.866Z,100068.00
2018-09-27T20:41:57.359Z,100074.00
2018-09-27T20:44:01.883Z,100073.00
2018-09-27T20:46:07.089Z,100080.00
2018-09-27T20:48:11.523Z,100074.00
2018-09-27T20:50:15.995Z,100073.00
2018-09-27T20:52:20.503Z,100076.00
2018-09-27T20:54:24.999Z,100068.00
2018-09-27T20:56:29.478Z,100068.00
2018-09-27T20:58:33.997Z,100067.00
2018-09-27T21:00:38.530Z,100078.00
2018-09-27T21:02:43.092Z,100074.00
2018-09-27T21:04:47.590Z,100066.00
2018-09-27T21:06:52.043Z,100060.00
2018-09-27T21:08:56.546Z,100059.00
2018-09-27T21:11:01.096Z,100062.00
2018-09-27T21:13:05.623Z,100055.00
2018-09-27T21:15:10.116Z,100048.00
2018-09-27T21:17:14.627Z,100052.00
2018-09-27T21:19:19.085Z,100053.00
2018-09-27T21:21:23.555Z,100049.00
2018-09-27T21:23:28.155Z,100053.00
2018-09-27T21:25:32.673Z,100045.00
2018-09-27T21:27:37.161Z,100047.00
2018-09-27T21:29:41.957Z,100048.00
2018-09-27T21:31:46.591Z,100052.00
2018-09-27T21:33:51.332Z,100060.00
2018-09-27T21:35:55.840Z,100059.00
2018-09-27T21:38:00.303Z,100053.00
2018-09-27T21:40:05.215Z,100051.00
2018-09-27T21:42:09.718Z,100059.00
2018-09-27T21:44:14.289Z,100057.00
2018-09-27T21:46:18.943Z,100052.00
2018-09-27T21:48:23.396Z,100051.00
2018-09-27T21:50:27.908Z,100046.00
2018-09-27T21:52:32.383Z,100046.00
2018-09-27T21:54:36.828Z,100038.00
2018-09-27T21:56:41.306Z,100036.00
2018-09-27T21:58:46.073Z,100038.00
2018-09-27T22:00:52.051Z,100040.00
2018-09-27T22:02:56.532Z,100040.00
2018-09-27T22:05:01.011Z,100038.00
2018-09-27T22:07:05.508Z,100035.00
2018-09-27T22:09:11.171Z,100035.00
2018-09-27T22:11:15.660Z,100036.00
2018-09-27T22:13:20.222Z,100031.00
2018-09-27T22:15:24.807Z,100038.00
2018-09-27T22:17:29.338Z,100038.00
2018-09-27T22:19:34.287Z,100042.00
2018-09-27T22:21:38.851Z,100039.00
2018-09-27T22:23:43.356Z,100046.00
2018-09-27T22:25:47.826Z,100041.00
2018-09-27T22:27:52.306Z,100039.00
2018-09-27T22:29:56.835Z,100047.00
2018-09-27T22:32:01.339Z,100039.00
2018-09-27T22:34:06.066Z,100026.00
2018-09-27T22:36:10.551Z,100037.00
2018-09-27T22:38:15.106Z,100039.00
2018-09-27T22:40:19.635Z,100041.00
2018-09-27T22:42:24.095Z,100043.00
2018-09-27T22:44:28.571Z,100040.00
2018-09-27T22:46:33.042Z,100050.00
2018-09-27T22:48:38.144Z,100049.00
2018-09-27T22:50:42.621Z,100058.00
2018-09-27T22:52:47.115Z,100050.00
2018-09-27T22:54:51.590Z,100053.00
2018-09-27T22:56:56.097Z,100054.00
2018-09-27T22:59:00.675Z,100044.00
2018-09-27T23:01:05.208Z,100045.00
2018-09-27T23:03:09.702Z,100048.00
2018-09-27T23:05:14.183Z,100046.00
2018-09-27T23:07:18.665Z,100043.00
2018-09-27T23:09:23.845Z,100037.00
2018-09-27T23:11:32.138Z,100048.00
2018-09-27T23:13:36.639Z,100045.00
2018-09-27T23:15:41.099Z,100039.00
2018-09-27T23:17:45.622Z,100039.00
2018-09-27T23:19:50.183Z,100034.00
2018-09-27T23:21:54.679Z,100031.00
2018-09-27T23:23:59.189Z,100029.00
2018-09-27T23:26:03.753Z,100022.00
2018-09-27T23:28:08.427Z,100025.00
2018-09-27T23:30:12.874Z,100023.00
2018-09-27T23:32:17.366Z,100022.00
2018-09-27T23:34:21.825Z,100021.00
2018-09-27T23:36:26.315Z,100023.00
2018-09-27T23:38:30.827Z,100025.00
2018-09-27T23:40:35.324Z,100020.00
2018-09-27T23:42:39.794Z,100021.00
2018-09-27T23:44:44.273Z,100025.00
2018-09-27T23:46:48.730Z,100024.00